Time;durP1;ratioP1;P1;durP2;ratioP2;P2;SDS_P1;SDS_P2;PMS_P1;PMS_P2;Temp;Humidity;BMP_temperature;BMP_pressure;BME280_temperature;BME280_humidity;BME280_pressure;Samples;Min_cycle;Max_cycle;Signal;HPM_P1;HPM_P2
2022/10/13 00:00:11;;;;;;;3.33;3.00;;;16.70;62.00;;;;;;5072541;28;20634;-66
2022/10/13 00:02:37;;;;;;;3.38;3.08;;;16.70;62.00;;;;;;5073195;28;20174;-66
2022/10/13 00:05:03;;;;;;;4.10;3.50;;;16.70;62.00;;;;;;5071828;28;20664;-66
2022/10/13 00:07:28;;;;;;;4.18;3.10;;;16.70;62.10;;;;;;5072967;28;20315;-66
2022/10/13 00:09:53;;;;;;;5.90;3.35;;;16.70;62.10;;;;;;5072530;28;20688;-66
2022/10/13 00:12:19;;;;;;;5.03;3.58;;;16.70;62.10;;;;;;5062295;28;20182;-66
2022/10/13 00:14:44;;;;;;;3.83;3.20;;;16.70;62.10;;;;;;5052673;28;20167;-65
2022/10/13 00:17:10;;;;;;;3.67;3.38;;;16.70;62.10;;;;;;5052280;28;20163;-65
2022/10/13 00:19:35;;;;;;;4.97;3.88;;;16.70;62.00;;;;;;5051974;28;20178;-66
2022/10/13 00:22:01;;;;;;;3.70;3.33;;;16.70;62.10;;;;;;5052353;28;20171;-66
2022/10/13 00:24:26;;;;;;;3.75;3.08;;;16.70;62.00;;;;;;5052413;28;20580;-66
2022/10/13 00:26:52;;;;;;;3.80;3.40;;;16.70;62.10;;;;;;5051680;28;20164;-66
2022/10/13 00:29:18;;;;;;;4.03;3.40;;;16.70;62.00;;;;;;5052103;28;20214;-66
2022/10/13 00:31:43;;;;;;;6.30;3.20;;;16.60;62.00;;;;;;5052525;28;20673;-64
2022/10/13 00:34:09;;;;;;;3.60;3.30;;;16.70;62.00;;;;;;5051501;28;20205;-65
2022/10/13 00:36:34;;;;;;;3.75;3.45;;;16.60;61.90;;;;;;5053163;28;20581;-66
2022/10/13 00:39:00;;;;;;;3.95;3.33;;;16.60;61.90;;;;;;5055440;28;20246;-65
2022/10/13 00:41:25;;;;;;;3.40;3.10;;;16.60;62.00;;;;;;5056634;28;20171;-66
2022/10/13 00:43:58;;;;;;;3.13;2.83;;;16.60;61.90;;;;;;5056631;28;20629;-65
2022/10/13 00:46:26;;;;;;;3.38;3.10;;;16.60;62.00;;;;;;5055945;28;20185;-66
2022/10/13 00:48:51;;;;;;;3.67;3.03;;;16.60;61.90;;;;;;5056383;28;20286;-66
2022/10/13 00:51:20;;;;;;;3.55;3.10;;;16.60;61.90;;;;;;5055082;28;20702;-66
2022/10/13 00:53:45;;;;;;;4.00;3.30;;;16.60;61.90;;;;;;5055579;28;20179;-66
2022/10/13 00:56:11;;;;;;;3.92;3.15;;;16.60;62.00;;;;;;5054868;28;20163;-65
2022/10/13 00:58:36;;;;;;;3.10;2.80;;;16.60;61.90;;;;;;5054982;28;20171;-66
2022/10/13 01:01:02;;;;;;;3.30;2.90;;;16.60;62.00;;;;;;5053804;28;20506;-66
2022/10/13 01:03:27;;;;;;;4.00;3.17;;;16.60;62.00;;;;;;5038345;28;20252;-66
2022/10/13 01:05:55;;;;;;;3.10;2.75;;;16.60;62.00;;;;;;5056141;28;20182;-66
2022/10/13 01:08:21;;;;;;;4.45;3.53;;;16.60;62.00;;;;;;5053554;28;20226;-66
2022/10/13 01:10:58;;;;;;;4.53;3.45;;;16.60;62.00;;;;;;5056111;28;20171;-65
2022/10/13 01:13:48;;;;;;;3.30;3.00;;;16.60;62.00;;;;;;5073010;28;20199;-66
2022/10/13 01:16:22;;;;;;;3.70;2.67;;;16.60;62.10;;;;;;5073659;28;20255;-66
2022/10/13 01:18:54;;;;;;;3.22;2.88;;;16.60;62.00;;;;;;5074692;28;20170;-66
2022/10/13 01:21:24;;;;;;;3.63;3.30;;;16.60;62.10;;;;;;5073250;28;20655;-66
2022/10/13 01:24:09;;;;;;;3.03;2.72;;;16.50;62.00;;;;;;5058301;28;20512;-65
2022/10/13 01:26:58;;;;;;;3.90;3.45;;;16.60;62.00;;;;;;5075510;28;20174;-65
2022/10/13 01:29:49;;;;;;;3.63;3.33;;;16.60;62.00;;;;;;5073499;28;20259;-65
2022/10/13 01:32:23;;;;;;;3.42;3.13;;;16.60;62.00;;;;;;5074195;28;20228;-64
2022/10/13 01:34:54;;;;;;;3.63;3.28;;;16.50;62.00;;;;;;5074369;28;20235;-65
2022/10/13 01:37:52;;;;;;;4.22;3.05;;;16.60;62.00;;;;;;5056763;28;20273;-65
2022/10/13 01:40:28;;;;;;;3.60;3.28;;;16.50;62.10;;;;;;5074477;28;20182;-64
2022/10/13 01:43:08;;;;;;;3.47;3.17;;;16.50;62.00;;;;;;5057875;28;20193;-65
2022/10/13 01:46:01;;;;;;;4.50;3.50;;;16.50;62.10;;;;;;5075377;28;20170;-66
2022/10/13 01:48:27;;;;;;;3.95;3.15;;;16.50;62.00;;;;;;5070738;28;20568;-66
2022/10/13 01:50:52;;;;;;;3.63;3.20;;;16.50;62.00;;;;;;5073401;28;20174;-65
2022/10/13 01:53:18;;;;;;;4.82;3.60;;;16.60;62.10;;;;;;5056999;28;20223;-66
2022/10/13 01:55:54;;;;;;;3.13;2.80;;;16.50;62.00;;;;;;5073986;28;20235;-66
2022/10/13 01:58:21;;;;;;;3.10;2.90;;;16.50;62.00;;;;;;5073938;28;20224;-65
2022/10/13 02:01:10;;;;;;;3.17;2.85;;;16.50;62.00;;;;;;5073974;28;20189;-65
2022/10/13 02:03:54;;;;;;;3.30;3.00;;;16.50;62.10;;;;;;5072816;28;20274;-65
2022/10/13 02:06:21;;;;;;;3.38;3.08;;;16.50;62.10;;;;;;5073608;28;20223;-66
2022/10/13 02:08:55;;;;;;;3.80;3.05;;;16.50;62.10;;;;;;5074519;28;20664;-66
2022/10/13 02:11:21;;;;;;;3.70;3.40;;;16.50;62.10;;;;;;5072259;28;20178;-66
2022/10/13 02:13:53;;;;;;;3.75;3.10;;;16.50;62.10;;;;;;5053533;28;20220;-66
2022/10/13 02:16:22;;;;;;;4.47;3.72;;;16.50;62.10;;;;;;5054526;28;20205;-65
2022/10/13 02:18:47;;;;;;;3.58;3.28;;;16.50;62.10;;;;;;5052762;28;20269;-66
2022/10/13 02:21:13;;;;;;;4.07;2.70;;;16.50;62.10;;;;;;5053195;28;20658;-65
2022/10/13 02:23:38;;;;;;;3.53;3.22;;;16.50;62.10;;;;;;5036572;28;20179;-66
2022/10/13 02:26:04;;;;;;;3.85;3.33;;;16.50;62.20;;;;;;5052264;28;20167;-65
2022/10/13 02:28:29;;;;;;;3.60;3.30;;;16.50;62.20;;;;;;5053347;28;20648;-66
2022/10/13 02:30:55;;;;;;;3.72;3.30;;;16.50;62.20;;;;;;5053410;28;20179;-65
2022/10/13 02:33:20;;;;;;;5.40;3.35;;;16.50;62.20;;;;;;5053193;28;20199;-64
2022/10/13 02:35:46;;;;;;;3.47;3.17;;;16.50;62.20;;;;;;5054368;28;20175;-65
2022/10/13 02:38:11;;;;;;;3.45;3.15;;;16.50;62.20;;;;;;5054251;28;20175;-65
2022/10/13 02:40:37;;;;;;;3.78;3.47;;;16.50;62.20;;;;;;5053447;28;20175;-68
2022/10/13 02:43:03;;;;;;;3.50;3.20;;;16.50;62.20;;;;;;5053805;28;20175;-66
2022/10/13 02:45:28;;;;;;;3.42;3.13;;;16.50;62.20;;;;;;5054216;28;20175;-65
2022/10/13 02:47:54;;;;;;;3.45;3.15;;;16.50;62.20;;;;;;5053387;28;20171;-66
2022/10/13 02:50:19;;;;;;;3.50;3.20;;;16.50;62.30;;;;;;5053897;28;20594;-65
2022/10/13 02:52:45;;;;;;;3.80;3.30;;;16.40;62.20;;;;;;5053461;28;20258;-65
2022/10/13 02:55:10;;;;;;;3.97;3.10;;;16.50;62.20;;;;;;5053860;28;20199;-66
2022/10/13 02:57:36;;;;;;;4.60;3.40;;;16.40;62.20;;;;;;5054099;28;20167;-65
2022/10/13 03:00:04;;;;;;;3.30;3.00;;;16.50;62.20;;;;;;5052699;28;20646;-65
2022/10/13 03:02:30;;;;;;;3.60;3.30;;;16.40;62.20;;;;;;5054007;28;20171;-66
2022/10/13 03:04:55;;;;;;;3.35;3.05;;;16.40;62.20;;;;;;5053696;28;20533;-66
2022/10/13 03:07:21;;;;;;;3.22;2.92;;;16.50;62.20;;;;;;5052578;28;20218;-65
2022/10/13 03:09:46;;;;;;;3.92;3.53;;;16.50;62.30;;;;;;5053651;28;20207;-66
2022/10/13 03:12:12;;;;;;;3.53;3.22;;;16.40;62.30;;;;;;5061788;28;20165;-65
2022/10/13 03:14:37;;;;;;;3.67;3.17;;;16.50;62.30;;;;;;5073136;28;20186;-66
2022/10/13 03:17:03;;;;;;;4.72;3.40;;;16.40;62.30;;;;;;5073118;28;20675;-65
2022/10/13 03:19:29;;;;;;;3.53;3.22;;;16.40;62.20;;;;;;5073631;28;20174;-66
2022/10/13 03:21:54;;;;;;;3.60;3.30;;;16.40;62.20;;;;;;5072827;28;20167;-67
2022/10/13 03:24:20;;;;;;;3.40;3.10;;;16.40;62.20;;;;;;5072001;28;20542;-66
2022/10/13 03:26:45;;;;;;;3.80;3.38;;;16.40;62.20;;;;;;5073243;28;20368;-66
2022/10/13 03:29:15;;;;;;;4.07;3.45;;;16.40;62.20;;;;;;5072012;28;20672;-65
2022/10/13 03:31:40;;;;;;;3.25;2.95;;;16.40;62.30;;;;;;5073039;28;20546;-65
2022/10/13 03:34:07;;;;;;;3.78;3.17;;;16.40;62.30;;;;;;5072780;28;20265;-64
2022/10/13 03:36:32;;;;;;;3.80;3.38;;;16.40;62.30;;;;;;5072491;28;20217;-65
2022/10/13 03:38:58;;;;;;;3.67;3.38;;;16.40;62.30;;;;;;5068887;28;20206;-66
2022/10/13 03:41:23;;;;;;;3.63;3.33;;;16.40;62.30;;;;;;5053323;28;20179;-65
2022/10/13 03:43:49;;;;;;;3.33;3.05;;;16.40;62.30;;;;;;5052327;28;20171;-66
2022/10/13 03:46:16;;;;;;;3.72;3.00;;;16.40;62.30;;;;;;5052854;28;20175;-65
2022/10/13 03:48:41;;;;;;;3.38;3.08;;;16.40;62.30;;;;;;5035409;28;20199;-65
2022/10/13 03:51:08;;;;;;;4.75;3.55;;;16.40;62.30;;;;;;5051899;28;20542;-66
2022/10/13 03:53:34;;;;;;;3.72;3.33;;;16.40;62.30;;;;;;5052724;28;20198;-66
2022/10/13 03:55:59;;;;;;;3.50;3.20;;;16.40;62.30;;;;;;5052052;28;20567;-65
2022/10/13 03:58:27;;;;;;;3.35;3.08;;;16.40;62.40;;;;;;5052632;28;20171;-65
2022/10/13 04:00:53;;;;;;;4.03;3.15;;;16.40;62.40;;;;;;5052789;28;20190;-66
2022/10/13 04:03:18;;;;;;;3.40;3.10;;;16.40;62.40;;;;;;5051541;28;20186;-66
2022/10/13 04:05:44;;;;;;;3.35;3.05;;;16.40;62.40;;;;;;5052643;28;20217;-65
2022/10/13 04:08:10;;;;;;;2.92;2.72;;;16.40;62.40;;;;;;5052011;28;20243;-66
2022/10/13 04:10:35;;;;;;;3.42;3.03;;;16.30;62.30;;;;;;5051957;28;20579;-65
2022/10/13 04:13:01;;;;;;;3.00;2.80;;;16.40;62.40;;;;;;5066780;28;20167;-67
2022/10/13 04:15:27;;;;;;;3.67;3.30;;;16.40;63.20;;;;;;5072658;28;20185;-66
2022/10/13 04:17:52;;;;;;;3.00;2.67;;;16.40;62.40;;;;;;5072113;28;20171;-65
2022/10/13 04:20:18;;;;;;;3.00;2.80;;;16.40;62.40;;;;;;5072246;28;20245;-65
2022/10/13 04:22:43;;;;;;;3.47;3.17;;;16.30;62.30;;;;;;5072719;28;20170;-65
2022/10/13 04:25:09;;;;;;;3.50;3.20;;;16.30;62.40;;;;;;5071757;28;20178;-66
2022/10/13 04:27:37;;;;;;;3.20;2.90;;;16.30;62.40;;;;;;5072442;28;20167;-66
2022/10/13 04:30:04;;;;;;;3.47;3.08;;;16.30;62.40;;;;;;5072313;28;20558;-64
2022/10/13 04:32:29;;;;;;;3.50;3.20;;;16.30;62.40;;;;;;5072396;28;20178;-67
2022/10/13 04:34:55;;;;;;;2.95;2.70;;;16.30;62.40;;;;;;5072556;28;20704;-64
2022/10/13 04:37:22;;;;;;;3.40;3.10;;;16.30;62.40;;;;;;5072271;28;20166;-66
2022/10/13 04:39:47;;;;;;;4.53;3.42;;;16.30;62.40;;;;;;5072128;28;20208;-67
2022/10/13 04:42:13;;;;;;;3.15;2.92;;;16.30;62.40;;;;;;5072236;28;20179;-67
2022/10/13 04:44:38;;;;;;;3.58;3.00;;;16.30;63.30;;;;;;5072600;28;20185;-68
2022/10/13 04:47:04;;;;;;;4.50;3.25;;;16.30;62.40;;;;;;5071665;28;20189;-67
2022/10/13 04:49:29;;;;;;;3.38;3.00;;;16.30;62.50;;;;;;5072333;28;20201;-68
2022/10/13 04:51:55;;;;;;;3.33;3.03;;;16.30;62.50;;;;;;5072616;28;20170;-67
2022/10/13 04:54:21;;;;;;;3.92;2.97;;;16.30;62.40;;;;;;5071611;28;20182;-67
2022/10/13 04:56:46;;;;;;;3.95;3.40;;;16.30;62.40;;;;;;5072374;28;20644;-67
2022/10/13 04:59:12;;;;;;;3.08;2.67;;;16.30;62.50;;;;;;5071545;28;20178;-67
2022/10/13 05:01:37;;;;;;;3.20;2.95;;;16.30;62.50;;;;;;5072544;28;20171;-67
2022/10/13 05:04:03;;;;;;;3.08;2.88;;;16.30;62.50;;;;;;5072411;28;20224;-66
2022/10/13 05:06:31;;;;;;;3.70;3.28;;;16.30;62.50;;;;;;5071777;28;20182;-67
2022/10/13 05:08:57;;;;;;;3.05;2.75;;;16.30;62.50;;;;;;5071852;28;20234;-67
2022/10/13 05:11:24;;;;;;;3.50;3.10;;;16.30;62.50;;;;;;5070822;28;20220;-66
2022/10/13 05:13:49;;;;;;;3.25;2.95;;;16.30;62.50;;;;;;5051700;28;20183;-67
2022/10/13 05:16:16;;;;;;;3.22;2.97;;;16.30;62.60;;;;;;5052283;28;20168;-67
2022/10/13 05:18:41;;;;;;;3.17;2.97;;;16.30;63.40;;;;;;5052421;28;20178;-66
2022/10/13 05:21:11;;;;;;;3.33;3.03;;;16.30;62.50;;;;;;5051382;28;20180;-67
2022/10/13 05:23:37;;;;;;;3.15;2.85;;;16.30;62.60;;;;;;5054888;28;20267;-67
2022/10/13 05:26:07;;;;;;;3.42;3.13;;;16.30;62.60;;;;;;5055790;28;20186;-67
2022/10/13 05:28:33;;;;;;;3.72;2.90;;;16.30;62.50;;;;;;5055239;28;20179;-66
2022/10/13 05:31:12;;;;;;;3.22;2.88;;;16.20;62.70;;;;;;5055571;28;20183;-66
2022/10/13 05:33:38;;;;;;;3.58;3.03;;;16.30;62.60;;;;;;5056097;28;20171;-66
2022/10/13 05:36:05;;;;;;;3.67;3.20;;;16.20;62.50;;;;;;5054844;28;20228;-66
2022/10/13 05:38:30;;;;;;;3.53;3.20;;;16.20;62.70;;;;;;5055820;28;20203;-66
2022/10/13 05:41:01;;;;;;;3.20;2.90;;;16.20;62.50;;;;;;5055935;28;20198;-67
2022/10/13 05:43:26;;;;;;;3.65;3.20;;;16.30;62.50;;;;;;5054975;28;20183;-68
2022/10/13 05:45:52;;;;;;;3.00;2.70;;;16.20;62.50;;;;;;5055933;28;20224;-67
2022/10/13 05:48:17;;;;;;;3.35;3.03;;;16.20;62.50;;;;;;5055407;28;20182;-67
2022/10/13 05:50:43;;;;;;;3.30;3.00;;;16.20;62.60;;;;;;5054640;28;20218;-67
2022/10/13 05:53:09;;;;;;;2.90;2.70;;;16.30;62.60;;;;;;5055446;28;20536;-67
2022/10/13 05:55:34;;;;;;;3.38;3.00;;;16.20;62.50;;;;;;5054912;28;20313;-67
2022/10/13 05:58:00;;;;;;;3.20;2.92;;;16.20;62.60;;;;;;5055159;28;20642;-67
2022/10/13 06:00:25;;;;;;;3.30;3.10;;;16.30;62.60;;;;;;5055488;28;20171;-67
2022/10/13 06:02:53;;;;;;;3.20;2.85;;;16.20;62.60;;;;;;5054559;28;20657;-66
2022/10/13 06:05:20;;;;;;;3.50;3.20;;;16.20;62.50;;;;;;5053940;28;20179;-67
2022/10/13 06:07:47;;;;;;;3.00;2.80;;;16.30;62.60;;;;;;5037638;28;20222;-66
2022/10/13 06:10:12;;;;;;;3.25;2.70;;;16.30;62.70;;;;;;5052915;28;20218;-66
2022/10/13 06:12:38;;;;;;;3.38;3.08;;;16.40;62.50;;;;;;5065529;28;20604;-67
2022/10/13 06:15:04;;;;;;;3.28;2.95;;;16.40;62.40;;;;;;5074732;28;20204;-67
2022/10/13 06:17:29;;;;;;;2.80;2.60;;;16.50;62.50;;;;;;5074167;28;20174;-67
2022/10/13 06:19:55;;;;;;;2.78;2.58;;;16.60;62.20;;;;;;5075219;28;20182;-66
2022/10/13 06:22:20;;;;;;;2.92;2.65;;;16.80;62.10;;;;;;5074855;28;20174;-67
2022/10/13 06:24:46;;;;;;;3.78;2.80;;;16.80;61.80;;;;;;5074097;28;20257;-67
2022/10/13 06:27:12;;;;;;;2.60;2.40;;;16.90;61.70;;;;;;5074572;28;20174;-66
2022/10/13 06:29:37;;;;;;;3.08;2.72;;;16.90;61.60;;;;;;5075004;28;20206;-67
2022/10/13 06:32:03;;;;;;;2.70;2.50;;;16.90;61.50;;;;;;5073986;28;20224;-67
2022/10/13 06:34:29;;;;;;;2.55;2.35;;;16.90;61.50;;;;;;5074137;28;20197;-67
2022/10/13 06:36:57;;;;;;;3.05;2.75;;;16.90;61.50;;;;;;5074848;28;20178;-66
2022/10/13 06:39:23;;;;;;;2.17;2.03;;;17.00;61.50;;;;;;5073892;28;20186;-67
2022/10/13 06:41:49;;;;;;;3.00;2.47;;;17.10;61.30;;;;;;5074752;28;20304;-67
2022/10/13 06:44:15;;;;;;;2.65;2.45;;;17.20;61.30;;;;;;5074462;28;20178;-67
2022/10/13 06:46:40;;;;;;;2.38;2.20;;;17.30;61.20;;;;;;5073700;28;20167;-67
2022/10/13 06:49:09;;;;;;;3.42;2.30;;;17.40;61.00;;;;;;5074331;28;20559;-67
2022/10/13 06:51:34;;;;;;;4.68;2.67;;;17.60;60.50;;;;;;5074503;28;20177;-67
2022/10/13 06:54:00;;;;;;;2.72;2.53;;;17.80;60.10;;;;;;5073550;28;20179;-64
2022/10/13 06:56:25;;;;;;;2.60;2.40;;;18.00;59.80;;;;;;5074472;28;20608;-64
2022/10/13 06:58:51;;;;;;;4.28;2.60;;;18.20;59.40;;;;;;5073613;28;20174;-64
2022/10/13 07:01:16;;;;;;;3.35;2.60;;;18.30;59.20;;;;;;5074132;28;20186;-64
2022/10/13 07:03:42;;;;;;;2.50;2.17;;;18.40;59.10;;;;;;5074302;28;20253;-64
2022/10/13 07:06:08;;;;;;;4.30;2.88;;;18.50;58.90;;;;;;5073017;28;20170;-63
2022/10/13 07:08:33;;;;;;;4.40;2.65;;;18.60;58.80;;;;;;5073859;28;20258;-64
2022/10/13 07:11:05;;;;;;;5.07;3.28;;;18.70;58.70;;;;;;5073856;28;20185;-64
2022/10/13 07:13:30;;;;;;;5.63;2.95;;;18.60;58.70;;;;;;5053768;28;20171;-67
2022/10/13 07:15:56;;;;;;;6.22;3.05;;;18.60;58.80;;;;;;5053940;28;20179;-67
2022/10/13 07:18:21;;;;;;;5.25;2.35;;;18.60;58.90;;;;;;5053860;28;20175;-68
2022/10/13 07:20:47;;;;;;;3.25;2.53;;;18.50;59.10;;;;;;5053200;28;20269;-68
2022/10/13 07:23:13;;;;;;;3.17;2.40;;;18.40;59.30;;;;;;5053693;28;20216;-67
2022/10/13 07:25:38;;;;;;;4.68;2.60;;;18.20;59.50;;;;;;5053942;28;20167;-67
2022/10/13 07:28:04;;;;;;;4.50;2.85;;;18.20;59.70;;;;;;5052612;28;20171;-67
2022/10/13 07:30:29;;;;;;;2.80;2.60;;;18.10;59.90;;;;;;5053374;28;20219;-67
2022/10/13 07:32:55;;;;;;;3.28;2.53;;;18.00;60.90;;;;;;5053484;28;20259;-66
2022/10/13 07:35:21;;;;;;;4.22;2.55;;;18.00;60.40;;;;;;5052430;28;20207;-67
2022/10/13 07:37:46;;;;;;;4.57;3.15;;;17.90;60.60;;;;;;5053610;28;20202;-67
2022/10/13 07:40:12;;;;;;;2.95;2.38;;;17.80;60.80;;;;;;5053247;28;20171;-68
2022/10/13 07:42:37;;;;;;;4.63;2.88;;;17.80;61.10;;;;;;5052898;28;20533;-68
2022/10/13 07:45:03;;;;;;;3.95;2.85;;;17.70;61.20;;;;;;5053264;28;20221;-67
2022/10/13 07:47:29;;;;;;;6.00;2.88;;;17.60;61.00;;;;;;5052693;28;20241;-67
2022/10/13 07:49:54;;;;;;;4.28;2.72;;;17.60;61.30;;;;;;5052775;28;20284;-67
2022/10/13 07:52:20;;;;;;;4.68;2.80;;;17.60;61.70;;;;;;5053147;28;20174;-68
2022/10/13 07:54:45;;;;;;;4.07;3.00;;;17.60;61.80;;;;;;5053509;28;20175;-67
2022/10/13 07:57:11;;;;;;;4.18;2.75;;;17.60;61.80;;;;;;5052378;28;20270;-68
2022/10/13 07:59:37;;;;;;;4.80;2.92;;;17.50;61.80;;;;;;5053389;28;20274;-68
2022/10/13 08:02:02;;;;;;;4.00;2.53;;;17.50;62.00;;;;;;5052532;28;20687;-68
2022/10/13 08:04:31;;;;;;;3.90;3.10;;;17.50;62.00;;;;;;5053026;28;20179;-67
2022/10/13 08:06:57;;;;;;;2.97;2.65;;;17.40;62.10;;;;;;5052757;28;20278;-67
2022/10/13 08:09:24;;;;;;;3.92;2.85;;;17.40;62.20;;;;;;5052204;28;20708;-67
2022/10/13 08:11:49;;;;;;;3.70;2.50;;;17.50;62.30;;;;;;5057978;28;20197;-67
2022/10/13 08:14:14;;;;;;;3.50;2.60;;;17.60;62.20;;;;;;5071336;28;20624;-68
2022/10/13 08:16:44;;;;;;;2.53;2.17;;;17.60;62.10;;;;;;5072083;28;20167;-68
2022/10/13 08:19:13;;;;;;;3.60;2.88;;;17.60;62.00;;;;;;5072517;28;20666;-68
2022/10/13 08:21:39;;;;;;;3.25;2.95;;;17.60;62.00;;;;;;5072985;28;20166;-68
2022/10/13 08:24:09;;;;;;;5.03;2.65;;;17.50;62.00;;;;;;5071942;28;20174;-68
2022/10/13 08:26:34;;;;;;;2.58;2.38;;;17.60;62.10;;;;;;5071752;28;20171;-67
2022/10/13 08:29:00;;;;;;;4.38;3.10;;;17.50;62.20;;;;;;5073146;28;20217;-67
2022/10/13 08:31:25;;;;;;;3.15;2.83;;;17.50;62.30;;;;;;5072185;28;20169;-67
2022/10/13 08:33:51;;;;;;;3.13;2.45;;;17.60;62.30;;;;;;5072631;28;20194;-67
2022/10/13 08:36:17;;;;;;;2.80;2.50;;;17.60;62.20;;;;;;5072676;28;20269;-67
2022/10/13 08:38:43;;;;;;;2.78;2.58;;;17.70;62.10;;;;;;5072058;28;20270;-67
2022/10/13 08:41:13;;;;;;;4.65;2.50;;;17.70;61.90;;;;;;5072693;28;20175;-68
2022/10/13 08:43:38;;;;;;;3.63;2.30;;;17.60;61.90;;;;;;5071726;28;20170;-67
2022/10/13 08:46:04;;;;;;;2.92;2.47;;;17.70;62.00;;;;;;5071633;28;20174;-67
2022/10/13 08:48:31;;;;;;;2.35;2.03;;;17.60;62.00;;;;;;5073252;28;20178;-67
2022/10/13 08:51:01;;;;;;;4.63;2.70;;;17.60;62.10;;;;;;5054633;28;20209;-67
2022/10/13 08:53:31;;;;;;;3.63;2.40;;;17.60;62.20;;;;;;5070838;28;20174;-67
2022/10/13 08:55:58;;;;;;;2.45;2.22;;;17.60;62.20;;;;;;5072642;28;20265;-67
2022/10/13 08:58:28;;;;;;;2.35;2.15;;;17.70;62.20;;;;;;5073020;28;20221;-67
2022/10/13 09:00:57;;;;;;;4.38;2.88;;;17.70;62.00;;;;;;5076754;28;20186;-67
2022/10/13 09:03:27;;;;;;;3.22;2.30;;;17.70;62.10;;;;;;5076629;28;20174;-67
2022/10/13 09:06:04;;;;;;;3.53;2.72;;;17.60;62.10;;;;;;5075647;28;20253;-67
2022/10/13 09:08:43;;;;;;;3.58;2.47;;;17.60;62.10;;;;;;5075056;28;20222;-67
2022/10/13 09:11:10;;;;;;;3.58;2.47;;;17.60;62.20;;;;;;5076241;28;20194;-67
2022/10/13 09:13:35;;;;;;;4.40;2.47;;;17.60;62.30;;;;;;5055707;28;20186;-67
2022/10/13 09:16:01;;;;;;;2.88;2.40;;;17.60;62.40;;;;;;5056136;28;20174;-67
2022/10/13 09:18:29;;;;;;;3.40;2.60;;;17.60;62.40;;;;;;5056375;28;20183;-67
2022/10/13 09:21:23;;;;;;;4.45;2.35;;;17.70;62.40;;;;;;5055265;28;20317;-68
2022/10/13 09:23:50;;;;;;;5.55;2.60;;;17.70;62.00;;;;;;5056246;28;20179;-67
2022/10/13 09:26:24;;;;;;;3.15;2.85;;;17.80;62.00;;;;;;5055928;28;20179;-67
2022/10/13 09:28:50;;;;;;;4.07;2.50;;;17.80;61.80;;;;;;5054017;28;20173;-67
2022/10/13 09:31:26;;;;;;;2.33;2.13;;;17.90;61.80;;;;;;5055847;28;20624;-67
2022/10/13 09:34:00;;;;;;;2.67;2.40;;;17.80;61.70;;;;;;5055357;28;20175;-67
2022/10/13 09:36:25;;;;;;;2.95;2.17;;;17.80;61.70;;;;;;5055958;28;20201;-67
2022/10/13 09:39:14;;;;;;;2.97;2.15;;;17.80;61.70;;;;;;5055880;28;20645;-68
2022/10/13 09:41:40;;;;;;;2.35;2.15;;;18.00;61.70;;;;;;5055050;28;20241;-68
2022/10/13 09:44:16;;;;;;;2.60;2.15;;;18.00;61.70;;;;;;5055672;28;20186;-68
2022/10/13 09:46:52;;;;;;;3.63;2.67;;;18.00;61.80;;;;;;5055729;28;20178;-67
2022/10/13 09:49:38;;;;;;;2.42;2.22;;;17.90;61.70;;;;;;5037599;28;20564;-67
2022/10/13 09:52:10;;;;;;;2.85;2.35;;;17.90;61.70;;;;;;5054063;28;20171;-67
2022/10/13 09:54:39;;;;;;;3.22;2.25;;;17.80;61.70;;;;;;5054812;28;20183;-67
2022/10/13 09:57:19;;;;;;;2.88;2.30;;;17.90;61.90;;;;;;5054143;28;20182;-67
2022/10/13 09:59:47;;;;;;;2.80;2.38;;;17.80;61.90;;;;;;5054642;28;20171;-67
2022/10/13 10:02:13;;;;;;;2.88;2.63;;;17.80;61.90;;;;;;5036794;28;20281;-67
2022/10/13 10:04:40;;;;;;;2.50;2.30;;;17.80;62.00;;;;;;5055487;28;20681;-67
2022/10/13 10:07:20;;;;;;;2.63;2.40;;;17.70;62.00;;;;;;5054903;28;20167;-66
2022/10/13 10:09:48;;;;;;;2.60;2.25;;;17.70;61.90;;;;;;5037199;28;20211;-67
2022/10/13 10:12:19;;;;;;;3.53;2.60;;;17.70;61.90;;;;;;5062438;28;20174;-67
2022/10/13 10:14:47;;;;;;;2.92;2.72;;;17.70;61.90;;;;;;5057304;28;20676;-67
2022/10/13 10:17:40;;;;;;;3.08;2.47;;;17.70;62.10;;;;;;5074282;28;20241;-68
2022/10/13 10:20:13;;;;;;;3.55;2.40;;;17.70;62.10;;;;;;5073380;28;20656;-68
2022/10/13 10:23:03;;;;;;;3.50;2.30;;;17.60;62.10;;;;;;5074154;28;20174;-68
2022/10/13 10:25:50;;;;;;;2.53;2.28;;;17.60;62.10;;;;;;5059905;28;20205;-67
2022/10/13 10:28:40;;;;;;;2.15;1.95;;;17.60;62.40;;;;;;5057471;28;20163;-67
2022/10/13 10:31:29;;;;;;;3.00;2.40;;;17.60;62.40;;;;;;5073892;28;20182;-67
2022/10/13 10:34:13;;;;;;;2.88;2.10;;;17.60;62.20;;;;;;5075025;28;20178;-67
2022/10/13 10:36:50;;;;;;;2.58;2.13;;;17.60;62.40;;;;;;5057719;28;20186;-67
2022/10/13 10:39:22;;;;;;;3.05;2.53;;;17.60;62.50;;;;;;5074569;28;20284;-68
2022/10/13 10:42:17;;;;;;;3.50;2.50;;;17.50;62.50;;;;;;5073386;28;20664;-68
2022/10/13 10:44:43;;;;;;;2.97;2.75;;;17.50;62.60;;;;;;5071092;28;20568;-67
2022/10/13 10:47:38;;;;;;;2.50;2.30;;;17.50;62.60;;;;;;5072965;28;20178;-67
2022/10/13 10:50:05;;;;;;;2.85;2.65;;;17.50;62.80;;;;;;5059185;28;20211;-67
2022/10/13 10:53:06;;;;;;;2.60;2.22;;;17.50;62.80;;;;;;5073563;28;20228;-67
2022/10/13 10:55:48;;;;;;;2.35;2.13;;;17.40;62.80;;;;;;5073244;28;20220;-68
2022/10/13 10:58:34;;;;;;;2.30;2.00;;;17.40;62.90;;;;;;5072233;28;20178;-67
2022/10/13 11:01:05;;;;;;;2.83;2.63;;;17.40;62.90;;;;;;5058132;28;20178;-67
2022/10/13 11:03:53;;;;;;;2.70;2.50;;;17.40;62.90;;;;;;5071373;28;20276;-66
2022/10/13 11:06:22;;;;;;;3.55;2.63;;;17.40;62.90;;;;;;5071571;28;20645;-67
2022/10/13 11:08:48;;;;;;;4.70;2.50;;;17.40;63.00;;;;;;5072980;28;20268;-67
2022/10/13 11:11:24;;;;;;;2.83;2.60;;;17.40;62.90;;;;;;5071419;28;20660;-67
2022/10/13 11:14:05;;;;;;;3.72;2.28;;;17.40;63.00;;;;;;5052928;28;20205;-67
2022/10/13 11:16:36;;;;;;;2.88;2.20;;;17.40;63.00;;;;;;5053581;28;20159;-67
2022/10/13 11:19:05;;;;;;;4.47;2.75;;;17.40;63.20;;;;;;5052348;28;20236;-67
2022/10/13 11:21:52;;;;;;;2.60;2.22;;;17.30;63.20;;;;;;5053337;28;20179;-67
2022/10/13 11:24:33;;;;;;;2.90;1.90;;;17.20;63.20;;;;;;5053559;28;20175;-67
2022/10/13 11:27:23;;;;;;;4.28;2.75;;;17.30;63.30;;;;;;5052537;28;20175;-68
2022/10/13 11:29:54;;;;;;;3.10;2.22;;;17.20;63.40;;;;;;5050564;28;20649;-66
2022/10/13 11:34:58;;;;;;;5.25;2.88;;;17.20;63.60;;;;;;5052961;28;20579;-62
2022/10/13 11:37:43;;;;;;;3.10;2.30;;;17.20;63.60;;;;;;5053496;28;20172;-66
2022/10/13 11:40:46;;;;;;;3.30;2.83;;;17.20;63.70;;;;;;5052258;28;20669;-63
2022/10/13 11:43:24;;;;;;;3.55;2.75;;;17.30;63.70;;;;;;5053277;28;20215;-64
2022/10/13 11:46:02;;;;;;;4.32;2.67;;;17.30;63.70;;;;;;5052266;28;20228;-63
2022/10/13 11:49:01;;;;;;;7.25;3.00;;;17.20;63.80;;;;;;5051128;28;20630;-63
2022/10/13 11:51:49;;;;;;;5.55;3.13;;;17.20;63.80;;;;;;5052243;28;20218;-63
2022/10/13 11:54:20;;;;;;;3.65;2.88;;;17.20;63.80;;;;;;5052364;28;20171;-63
2022/10/13 11:56:49;;;;;;;7.47;2.60;;;17.20;63.90;;;;;;5053414;28;20160;-65
2022/10/13 11:59:23;;;;;;;4.32;2.50;;;17.30;64.00;;;;;;5052692;28;20710;-65
2022/10/13 12:02:04;;;;;;;4.70;3.00;;;17.20;63.90;;;;;;5052493;28;20182;-65
2022/10/13 12:04:29;;;;;;;4.68;3.47;;;17.20;63.90;;;;;;5053076;28;20183;-65
2022/10/13 12:06:58;;;;;;;9.38;3.08;;;17.20;64.00;;;;;;5052982;28;20171;-65
2022/10/13 12:09:23;;;;;;;5.28;3.25;;;17.20;64.00;;;;;;5051861;28;20321;-63
2022/10/13 12:11:57;;;;;;;8.15;3.63;;;17.20;64.10;;;;;;5056956;28;20257;-66
2022/10/13 12:14:36;;;;;;;5.63;3.10;;;17.20;64.10;;;;;;5071774;28;20182;-64
2022/10/13 12:17:02;;;;;;;4.88;3.33;;;17.30;64.40;;;;;;5072015;28;20205;-65
2022/10/13 12:19:29;;;;;;;7.72;2.97;;;17.20;64.00;;;;;;5073093;28;20189;-66
2022/10/13 12:21:59;;;;;;;6.55;3.00;;;17.20;64.20;;;;;;5072701;28;20637;-64
2022/10/13 12:24:26;;;;;;;4.95;3.38;;;17.20;64.30;;;;;;5072435;28;20220;-64
2022/10/13 12:26:52;;;;;;;6.25;3.30;;;17.20;64.30;;;;;;5072846;28;20685;-64
2022/10/13 12:29:19;;;;;;;6.00;3.15;;;17.20;64.30;;;;;;5072456;28;20335;-64
2022/10/13 12:31:46;;;;;;;6.07;3.05;;;17.20;64.40;;;;;;5071564;28;20167;-63
2022/10/13 12:34:26;;;;;;;5.00;3.10;;;17.20;64.40;;;;;;5054628;28;20182;-63
2022/10/13 12:36:59;;;;;;;5.53;3.28;;;17.20;64.40;;;;;;5072320;28;20189;-64
2022/10/13 12:39:25;;;;;;;3.35;2.88;;;17.20;64.40;;;;;;5071682;28;20185;-65
2022/10/13 12:41:51;;;;;;;4.97;3.47;;;17.20;64.40;;;;;;5071532;28;20171;-64
2022/10/13 12:44:19;;;;;;;7.30;3.17;;;17.20;64.50;;;;;;5053964;28;20187;-64
2022/10/13 12:46:46;;;;;;;4.88;3.17;;;17.20;64.50;;;;;;5072736;28;20186;-64
2022/10/13 12:49:20;;;;;;;6.30;3.10;;;17.20;64.50;;;;;;5072482;28;20214;-64
2022/10/13 12:51:47;;;;;;;4.55;2.67;;;17.20;64.50;;;;;;5071236;28;20177;-64
2022/10/13 12:54:27;;;;;;;5.22;3.30;;;17.20;64.60;;;;;;5054378;28;20179;-65
2022/10/13 12:56:58;;;;;;;4.03;2.90;;;17.20;64.60;;;;;;5051185;28;20574;-64
2022/10/13 12:59:24;;;;;;;5.88;3.15;;;17.30;64.60;;;;;;5051773;28;20192;-64
2022/10/13 13:01:55;;;;;;;3.75;2.88;;;17.30;64.50;;;;;;5052653;28;20524;-63